Time;durP1;ratioP1;P1;durP2;ratioP2;P2;SDS_P1;SDS_P2;PMS_P1;PMS_P2;Temp;Humidity;BMP_temperature;BMP_pressure;BME280_temperature;BME280_humidity;BME280_pressure;Samples;Min_cycle;Max_cycle;Signal;HPM_P1;HPM_P2
2022/03/23 00:01:44;;;;;;;13.05;9.38;;;4.10;91.90;;;;;;5049656;28;20201;-69
2022/03/23 00:04:11;;;;;;;12.98;9.25;;;4.00;91.80;;;;;;5049760;28;20239;-70
2022/03/23 00:06:38;;;;;;;14.82;9.52;;;4.00;91.80;;;;;;5050001;28;20236;-67
2022/03/23 00:09:07;;;;;;;12.60;9.55;;;4.00;92.00;;;;;;5050605;28;20255;-69
2022/03/23 00:11:33;;;;;;;13.00;8.77;;;3.90;91.80;;;;;;5051404;28;20197;-70
2022/03/23 00:14:00;;;;;;;13.10;9.75;;;3.90;91.80;;;;;;5050404;28;20230;-70
2022/03/23 00:16:27;;;;;;;12.18;9.38;;;3.90;91.70;;;;;;5050040;28;20275;-69
2022/03/23 00:18:54;;;;;;;11.98;9.55;;;3.80;91.80;;;;;;5049553;28;20205;-70
2022/03/23 00:21:22;;;;;;;12.80;9.77;;;3.80;91.90;;;;;;5050865;28;20209;-70
2022/03/23 00:23:48;;;;;;;11.98;9.15;;;3.70;91.80;;;;;;5050447;28;20296;-70
2022/03/23 00:26:16;;;;;;;12.27;8.63;;;3.60;91.80;;;;;;5049760;28;20229;-70
2022/03/23 00:28:43;;;;;;;13.20;9.88;;;3.60;92.10;;;;;;5049680;28;20636;-70
2022/03/23 00:31:10;;;;;;;16.27;9.98;;;3.60;92.40;;;;;;5049975;28;20200;-69
2022/03/23 00:33:37;;;;;;;11.45;9.63;;;3.50;92.30;;;;;;5053612;28;20300;-70
2022/03/23 00:36:05;;;;;;;12.85;9.63;;;3.50;92.30;;;;;;5053941;28;20669;-68
2022/03/23 00:38:32;;;;;;;12.13;8.68;;;3.50;92.30;;;;;;5053887;28;20208;-70
2022/03/23 00:40:59;;;;;;;12.25;9.43;;;3.50;92.50;;;;;;5053669;28;20250;-70
2022/03/23 00:43:27;;;;;;;15.13;10.10;;;3.50;92.50;;;;;;5053944;28;20197;-70
2022/03/23 00:45:55;;;;;;;12.23;9.85;;;3.40;92.70;;;;;;5053937;28;20728;-70
2022/03/23 00:48:21;;;;;;;14.23;10.10;;;3.40;92.70;;;;;;5051483;28;20668;-68
2022/03/23 00:50:48;;;;;;;12.93;10.23;;;3.40;92.90;;;;;;5053187;28;20669;-70
2022/03/23 00:53:15;;;;;;;13.52;9.15;;;3.30;92.90;;;;;;5053295;28;20236;-70
2022/03/23 00:55:42;;;;;;;13.30;10.30;;;3.30;92.80;;;;;;5053029;28;20594;-69
2022/03/23 00:58:09;;;;;;;13.70;9.88;;;3.20;92.90;;;;;;5052895;28;20205;-69
2022/03/23 01:00:37;;;;;;;13.82;10.48;;;3.20;93.00;;;;;;5053400;28;20197;-69
2022/03/23 01:03:04;;;;;;;13.15;9.13;;;3.20;93.10;;;;;;5053059;28;20212;-68
2022/03/23 01:05:31;;;;;;;13.00;8.70;;;3.20;93.20;;;;;;5053431;28;20247;-69
2022/03/23 01:07:58;;;;;;;12.77;10.13;;;3.10;93.10;;;;;;5150208;22;20719;-67
2022/03/23 01:10:25;;;;;;;13.18;10.07;;;3.10;92.90;;;;;;5076480;28;20609;-68
2022/03/23 01:12:53;;;;;;;13.52;10.13;;;3.10;93.10;;;;;;5073869;28;20292;-69
2022/03/23 01:15:21;;;;;;;14.68;9.77;;;3.10;93.20;;;;;;5073521;28;20224;-69
2022/03/23 01:17:49;;;;;;;13.50;9.50;;;3.10;93.40;;;;;;5073168;28;20212;-68
2022/03/23 01:20:19;;;;;;;13.25;9.50;;;3.10;93.50;;;;;;5073608;28;20290;-68
2022/03/23 01:22:46;;;;;;;11.00;8.23;;;3.10;93.40;;;;;;5073765;28;20211;-69
2022/03/23 01:25:13;;;;;;;11.45;9.43;;;3.00;93.50;;;;;;5072948;28;20231;-68
2022/03/23 01:27:41;;;;;;;12.73;9.50;;;3.00;93.50;;;;;;5072988;28;20205;-68
2022/03/23 01:30:11;;;;;;;12.35;8.10;;;3.00;93.30;;;;;;5073174;28;20200;-69
2022/03/23 01:32:39;;;;;;;14.05;8.90;;;3.00;93.10;;;;;;5073911;28;20299;-68
2022/03/23 01:35:08;;;;;;;14.10;9.02;;;3.00;93.10;;;;;;5073036;28;20295;-69
2022/03/23 01:37:35;;;;;;;10.50;8.27;;;2.90;93.20;;;;;;5072402;28;20200;-69
2022/03/23 01:40:03;;;;;;;12.70;8.70;;;2.90;93.60;;;;;;5073074;28;20762;-69
2022/03/23 01:42:29;;;;;;;11.45;8.52;;;2.80;93.20;;;;;;5073374;28;20250;-66
2022/03/23 01:44:57;;;;;;;11.00;7.97;;;2.80;93.20;;;;;;5072814;28;20224;-67
2022/03/23 01:47:24;;;;;;;12.05;8.18;;;2.80;93.20;;;;;;5072544;28;20204;-66
2022/03/23 01:49:52;;;;;;;10.68;9.38;;;2.80;93.00;;;;;;5073114;28;20287;-67
2022/03/23 01:52:24;;;;;;;14.40;8.60;;;2.80;92.80;;;;;;5072965;28;20200;-66
2022/03/23 01:54:52;;;;;;;11.70;8.27;;;2.70;92.70;;;;;;5072985;28;20231;-66
2022/03/23 01:57:20;;;;;;;12.82;7.75;;;2.70;92.80;;;;;;5072300;28;20231;-67
2022/03/23 01:59:47;;;;;;;12.30;7.80;;;2.70;92.80;;;;;;5072979;28;20196;-68
2022/03/23 02:02:14;;;;;;;9.95;8.63;;;2.70;93.00;;;;;;5072682;28;20691;-68
2022/03/23 02:04:41;;;;;;;11.95;8.35;;;2.70;93.00;;;;;;5072602;28;20573;-68
2022/03/23 02:07:08;;;;;;;13.55;10.57;;;2.70;93.10;;;;;;5072001;28;20215;-68
2022/03/23 02:09:36;;;;;;;14.40;8.23;;;2.60;93.10;;;;;;5072642;28;20204;-68
2022/03/23 02:12:08;;;;;;;11.90;9.02;;;2.60;93.10;;;;;;5072462;28;20207;-67
2022/03/23 02:14:35;;;;;;;13.32;8.68;;;2.60;93.30;;;;;;5072662;28;20208;-68
2022/03/23 02:17:02;;;;;;;11.52;7.55;;;2.60;93.70;;;;;;5071538;28;20252;-67
2022/03/23 02:19:29;;;;;;;11.93;8.90;;;2.60;93.30;;;;;;5072610;28;20230;-68
2022/03/23 02:21:57;;;;;;;11.70;9.63;;;2.50;93.10;;;;;;5072092;28;20200;-67
2022/03/23 02:24:25;;;;;;;14.77;8.90;;;2.50;93.20;;;;;;5072495;28;20201;-67
2022/03/23 02:26:53;;;;;;;9.93;7.90;;;2.50;93.10;;;;;;5071485;28;20197;-68
2022/03/23 02:29:21;;;;;;;11.68;8.73;;;2.50;93.10;;;;;;5072374;28;20209;-67
2022/03/23 02:31:47;;;;;;;13.05;8.70;;;2.50;93.10;;;;;;5072350;28;20573;-68
2022/03/23 02:34:14;;;;;;;11.20;8.57;;;2.50;93.20;;;;;;5071862;28;20200;-67
2022/03/23 02:36:41;;;;;;;10.93;8.98;;;2.40;93.30;;;;;;5071383;28;20730;-68
2022/03/23 02:39:09;;;;;;;12.15;9.18;;;2.40;93.50;;;;;;5071714;28;20223;-68
2022/03/23 02:41:36;;;;;;;13.00;8.48;;;2.40;93.60;;;;;;5072122;28;20205;-68
2022/03/23 02:44:03;;;;;;;14.52;9.50;;;2.30;93.70;;;;;;5071922;28;20208;-67
2022/03/23 02:46:35;;;;;;;12.10;9.15;;;2.30;93.70;;;;;;5071802;28;20216;-67
2022/03/23 02:49:02;;;;;;;13.75;8.13;;;2.30;93.60;;;;;;5071601;28;20232;-67
2022/03/23 02:51:29;;;;;;;9.55;8.57;;;2.30;93.30;;;;;;5071897;28;20207;-67
2022/03/23 03:02:22;;;;;;;14.75;9.40;;;2.20;93.50;;;;;;5071653;28;20200;-68
2022/03/23 03:04:50;;;;;;;12.73;8.57;;;2.20;93.50;;;;;;5071548;28;20715;-67
2022/03/23 03:07:17;;;;;;;14.13;9.30;;;2.20;93.50;;;;;;5070937;28;20894;-67
2022/03/23 03:09:44;;;;;;;9.15;8.20;;;2.20;93.50;;;;;;5071688;28;20208;-67
2022/03/23 03:12:13;;;;;;;12.27;9.73;;;2.20;93.50;;;;;;5071438;28;20206;-67
2022/03/23 03:14:40;;;;;;;10.90;8.07;;;2.20;93.20;;;;;;5071457;28;20223;-68
2022/03/23 03:17:08;;;;;;;12.20;10.02;;;2.10;93.30;;;;;;5070660;28;20220;-68
2022/03/23 03:19:36;;;;;;;11.85;9.15;;;2.00;93.30;;;;;;5071572;28;20231;-67
2022/03/23 03:22:04;;;;;;;10.88;8.50;;;1.90;93.30;;;;;;5071135;28;20200;-68
2022/03/23 03:24:31;;;;;;;11.05;8.57;;;1.90;93.40;;;;;;5071450;28;20208;-67
2022/03/23 03:26:58;;;;;;;14.98;10.07;;;1.80;93.60;;;;;;5070220;28;20204;-67
2022/03/23 03:29:26;;;;;;;12.32;8.60;;;1.80;93.70;;;;;;5071354;28;20209;-67
2022/03/23 03:31:54;;;;;;;12.98;9.25;;;1.80;93.60;;;;;;5071262;28;20204;-67
2022/03/23 03:34:21;;;;;;;12.88;8.95;;;1.70;93.70;;;;;;5071052;28;20201;-67
2022/03/23 03:36:47;;;;;;;12.95;10.02;;;1.70;93.90;;;;;;5070624;28;20573;-67
2022/03/23 03:39:14;;;;;;;13.98;10.20;;;1.60;94.00;;;;;;5071119;28;20204;-67
2022/03/23 03:41:41;;;;;;;14.45;9.65;;;1.60;94.00;;;;;;5071031;28;20204;-67
2022/03/23 03:44:08;;;;;;;13.82;9.73;;;1.60;94.10;;;;;;5070888;28;20690;-67
2022/03/23 03:46:36;;;;;;;14.25;10.10;;;1.50;94.10;;;;;;5070563;28;20212;-68
2022/03/23 03:49:03;;;;;;;15.45;10.15;;;1.60;94.00;;;;;;5070596;28;20204;-67
2022/03/23 03:51:30;;;;;;;12.48;9.73;;;1.50;94.10;;;;;;5070823;28;20286;-67
2022/03/23 03:53:56;;;;;;;15.60;10.48;;;1.50;94.20;;;;;;5070624;28;20207;-68
2022/03/23 03:56:23;;;;;;;17.58;10.93;;;1.40;94.20;;;;;;5070380;28;20228;-68
2022/03/23 03:58:50;;;;;;;14.77;9.60;;;1.50;94.40;;;;;;5070198;28;20687;-67
2022/03/23 04:01:16;;;;;;;13.85;9.75;;;1.50;94.20;;;;;;5070822;28;20224;-67
2022/03/23 04:03:44;;;;;;;13.50;10.15;;;1.50;94.10;;;;;;5070581;28;20203;-68
2022/03/23 04:06:11;;;;;;;15.48;11.18;;;1.40;94.10;;;;;;5069751;28;20603;-68
2022/03/23 04:08:39;;;;;;;13.02;9.80;;;1.40;94.10;;;;;;5069738;28;20208;-67
2022/03/23 04:11:05;;;;;;;13.85;10.25;;;1.40;94.10;;;;;;5070413;28;20204;-67
2022/03/23 04:13:32;;;;;;;15.30;10.30;;;1.40;94.20;;;;;;5070941;28;20270;-68
2022/03/23 04:15:59;;;;;;;13.43;10.75;;;1.30;94.40;;;;;;5070142;28;20248;-68
2022/03/23 04:18:26;;;;;;;15.68;10.65;;;1.30;94.30;;;;;;5070048;28;20204;-67
2022/03/23 04:20:55;;;;;;;17.50;11.85;;;1.20;94.50;;;;;;5070351;28;20299;-68
2022/03/23 04:23:22;;;;;;;14.95;11.18;;;1.20;94.70;;;;;;5070584;28;20211;-68
2022/03/23 04:25:49;;;;;;;13.98;11.00;;;1.10;94.90;;;;;;5070282;28;20311;-68
2022/03/23 04:28:15;;;;;;;16.05;11.07;;;1.10;94.90;;;;;;5069568;28;20849;-68
2022/03/23 04:30:42;;;;;;;15.13;11.52;;;1.10;94.90;;;;;;5070571;28;20231;-68
2022/03/23 04:33:09;;;;;;;18.13;11.55;;;1.10;94.90;;;;;;5070088;28;20575;-68
2022/03/23 04:35:36;;;;;;;19.13;13.40;;;1.10;95.00;;;;;;5075575;28;20216;-68
2022/03/23 04:38:05;;;;;;;15.93;11.73;;;1.20;95.10;;;;;;5079723;28;20636;-68
2022/03/23 04:40:32;;;;;;;19.38;11.63;;;1.20;95.10;;;;;;5079119;28;20199;-67
2022/03/23 04:42:59;;;;;;;15.63;11.63;;;1.10;95.10;;;;;;5079630;28;20203;-67
2022/03/23 04:45:26;;;;;;;18.80;11.65;;;1.10;95.10;;;;;;5080901;28;20733;-67
2022/03/23 04:47:53;;;;;;;19.40;13.57;;;1.10;95.20;;;;;;5078833;28;20220;-67
2022/03/23 04:50:19;;;;;;;15.35;11.85;;;1.00;95.20;;;;;;5079113;28;20192;-68
2022/03/23 04:52:47;;;;;;;17.20;11.57;;;1.00;95.30;;;;;;5079681;28;20193;-67
2022/03/23 04:55:16;;;;;;;16.98;11.50;;;1.00;95.40;;;;;;5078527;28;20893;-68
2022/03/23 04:57:43;;;;;;;18.23;12.88;;;1.00;95.70;;;;;;5084569;28;20215;-68
2022/03/23 05:00:13;;;;;;;22.58;12.25;;;0.90;95.70;;;;;;5076991;28;20196;-68
2022/03/23 05:02:40;;;;;;;22.98;13.23;;;0.90;95.80;;;;;;5078299;28;20192;-68
2022/03/23 05:05:08;;;;;;;17.55;12.60;;;0.90;95.90;;;;;;5079976;28;20876;-68
2022/03/23 05:07:35;;;;;;;18.65;13.10;;;0.90;95.90;;;;;;5078633;28;20582;-67
2022/03/23 05:10:03;;;;;;;19.25;13.43;;;0.80;96.00;;;;;;5078223;28;20196;-68
2022/03/23 05:12:31;;;;;;;17.65;11.90;;;0.80;96.00;;;;;;5078022;28;20219;-68
2022/03/23 05:14:58;;;;;;;18.35;13.65;;;0.80;96.10;;;;;;5077574;28;20460;-67
2022/03/23 05:17:25;;;;;;;25.30;13.82;;;0.80;96.10;;;;;;5078526;28;20558;-68
2022/03/23 05:19:51;;;;;;;19.00;12.95;;;0.80;96.10;;;;;;5083106;28;20682;-68
2022/03/23 05:22:18;;;;;;;17.75;12.98;;;0.80;96.40;;;;;;5082407;28;20192;-68
2022/03/23 05:24:45;;;;;;;16.48;12.65;;;0.90;96.70;;;;;;5083019;28;20212;-67
2022/03/23 05:27:11;;;;;;;20.05;13.30;;;1.00;96.70;;;;;;5074750;28;20192;-68
2022/03/23 05:29:40;;;;;;;22.27;13.55;;;0.90;96.60;;;;;;5090341;28;20202;-68
2022/03/23 05:32:07;;;;;;;21.15;15.02;;;1.10;96.80;;;;;;5093487;28;20200;-68
2022/03/23 05:34:34;;;;;;;20.50;14.75;;;1.10;96.90;;;;;;5091855;28;20199;-68
2022/03/23 05:37:01;;;;;;;18.25;13.23;;;1.10;96.90;;;;;;5092484;28;20612;-68
2022/03/23 05:39:27;;;;;;;21.88;14.90;;;1.00;96.90;;;;;;5093419;28;20226;-68
2022/03/23 05:41:54;;;;;;;22.75;14.90;;;1.00;96.80;;;;;;5093122;28;20196;-68
2022/03/23 05:44:21;;;;;;;17.73;14.38;;;1.00;96.80;;;;;;5093134;28;20208;-68
2022/03/23 05:46:49;;;;;;;20.00;14.07;;;1.00;97.00;;;;;;5092734;28;20839;-68
2022/03/23 05:49:16;;;;;;;19.08;13.15;;;1.00;97.00;;;;;;5092915;28;20215;-68
2022/03/23 05:51:42;;;;;;;20.60;14.45;;;1.00;97.20;;;;;;5093213;28;20204;-67
2022/03/23 05:54:09;;;;;;;18.58;14.07;;;1.00;97.30;;;;;;5092992;28;20199;-68
2022/03/23 05:56:36;;;;;;;22.15;14.50;;;1.10;97.50;;;;;;5092569;28;20227;-68
2022/03/23 05:59:02;;;;;;;18.88;13.18;;;1.10;97.50;;;;;;5092663;28;20207;-68
2022/03/23 06:01:31;;;;;;;22.90;14.57;;;1.20;97.40;;;;;;5092925;28;20203;-67
2022/03/23 06:03:59;;;;;;;19.33;14.35;;;1.30;97.40;;;;;;5092933;28;20698;-68
2022/03/23 06:06:25;;;;;;;19.92;13.80;;;1.30;97.40;;;;;;5092607;28;20231;-68
2022/03/23 06:08:52;;;;;;;22.33;13.25;;;1.30;97.40;;;;;;5092537;28;20239;-68
2022/03/23 06:11:19;;;;;;;22.85;15.32;;;1.40;97.50;;;;;;5092705;28;20204;-68
2022/03/23 06:13:45;;;;;;;20.30;13.07;;;1.40;97.50;;;;;;5092820;28;20211;-69
2022/03/23 06:16:12;;;;;;;18.48;13.88;;;1.50;97.40;;;;;;5092427;28;20223;-68
2022/03/23 06:18:40;;;;;;;18.40;14.52;;;1.60;97.40;;;;;;5091881;28;20231;-69
2022/03/23 06:21:08;;;;;;;22.08;14.10;;;1.70;97.30;;;;;;5092357;28;20663;-69
2022/03/23 06:23:35;;;;;;;21.30;12.90;;;1.80;97.60;;;;;;5092636;28;20604;-67
2022/03/23 06:26:04;;;;;;;23.25;14.55;;;1.80;97.30;;;;;;5092000;28;20215;-68
2022/03/23 06:28:31;;;;;;;15.45;13.23;;;1.90;97.40;;;;;;5091827;28;20195;-67
2022/03/23 06:30:58;;;;;;;22.45;14.15;;;1.90;97.40;;;;;;5091138;28;20211;-67
2022/03/23 06:33:25;;;;;;;22.50;14.00;;;2.00;97.40;;;;;;5092523;28;20273;-68
2022/03/23 06:35:52;;;;;;;19.95;14.20;;;2.10;97.40;;;;;;5092023;28;20228;-67
2022/03/23 06:38:20;;;;;;;19.30;12.60;;;2.20;97.30;;;;;;5091566;28;20251;-67
2022/03/23 06:40:47;;;;;;;16.60;12.75;;;2.20;97.30;;;;;;5092441;28;20207;-68
2022/03/23 06:43:13;;;;;;;18.20;14.40;;;2.30;97.20;;;;;;5092271;28;20203;-67
2022/03/23 06:45:42;;;;;;;24.00;13.77;;;2.40;97.30;;;;;;5092222;28;20219;-67
2022/03/23 06:48:08;;;;;;;19.75;14.38;;;2.50;97.30;;;;;;5091162;28;20653;-67
2022/03/23 06:50:35;;;;;;;16.52;12.98;;;2.70;97.40;;;;;;5092086;28;20257;-68
2022/03/23 06:53:02;;;;;;;21.30;12.63;;;2.80;97.30;;;;;;5091811;28;20809;-68
2022/03/23 06:55:31;;;;;;;22.65;14.63;;;3.00;97.40;;;;;;5092016;28;20224;-67
2022/03/23 06:57:57;;;;;;;20.50;14.90;;;3.20;96.90;;;;;;5091134;28;20219;-68
2022/03/23 07:00:24;;;;;;;19.10;14.82;;;3.30;96.70;;;;;;5091918;28;20200;-68
2022/03/23 07:02:51;;;;;;;23.50;15.00;;;3.50;96.60;;;;;;5091823;28;20200;-67
2022/03/23 07:05:19;;;;;;;21.02;15.05;;;3.70;96.70;;;;;;5091177;28;20227;-67
2022/03/23 07:10:27;;;;;;;25.50;15.13;;;4.00;97.20;;;;;;5091340;28;20210;-68
2022/03/23 07:12:56;;;;;;;22.95;15.15;;;4.20;97.20;;;;;;5091616;28;20601;-67
2022/03/23 07:15:22;;;;;;;23.77;15.15;;;4.50;97.00;;;;;;5091158;28;20281;-68
2022/03/23 07:17:49;;;;;;;26.23;14.98;;;4.90;96.60;;;;;;5090831;28;20223;-67
2022/03/23 07:20:16;;;;;;;18.27;13.93;;;5.20;96.00;;;;;;5090548;28;20203;-68
2022/03/23 07:22:43;;;;;;;23.20;15.40;;;5.70;95.50;;;;;;5091301;28;20211;-67
2022/03/23 07:25:11;;;;;;;23.02;15.20;;;6.20;95.40;;;;;;5091004;28;20310;-68
2022/03/23 07:27:37;;;;;;;21.20;15.40;;;6.80;94.80;;;;;;5126816;22;20246;-72
2022/03/23 07:30:07;;;;;;;23.10;14.88;;;7.30;94.00;;;;;;5091109;28;20206;-72
2022/03/23 07:32:35;;;;;;;21.25;14.55;;;7.90;93.40;;;;;;5093728;28;20225;-72
2022/03/23 07:35:02;;;;;;;23.65;14.38;;;8.40;92.60;;;;;;5091867;28;20227;-72
2022/03/23 07:37:29;;;;;;;19.10;14.48;;;9.00;91.80;;;;;;5091556;28;20226;-72
2022/03/23 07:39:56;;;;;;;22.80;14.35;;;9.60;91.30;;;;;;5091251;28;20204;-72
2022/03/23 07:42:23;;;;;;;17.83;14.65;;;10.20;90.10;;;;;;5091913;28;20571;-73
2022/03/23 07:44:49;;;;;;;20.45;13.18;;;10.70;89.50;;;;;;5091613;28;20227;-72
2022/03/23 07:47:17;;;;;;;23.08;14.18;;;11.30;87.50;;;;;;5091634;28;20228;-72
2022/03/23 07:49:44;;;;;;;21.50;15.00;;;11.80;86.50;;;;;;5091652;28;20215;-71
2022/03/23 07:52:11;;;;;;;21.02;15.23;;;12.30;86.20;;;;;;5091729;28;20204;-72
2022/03/23 07:54:37;;;;;;;24.08;16.38;;;12.90;83.50;;;;;;5091822;28;20226;-71
2022/03/23 07:57:05;;;;;;;18.40;14.57;;;13.30;83.00;;;;;;5090117;28;20196;-72
2022/03/23 07:59:32;;;;;;;25.37;15.20;;;13.80;82.20;;;;;;5091324;28;20454;-72
2022/03/23 08:01:59;;;;;;;21.53;15.37;;;14.30;81.70;;;;;;5090582;28;20461;-72
2022/03/23 08:04:27;;;;;;;20.90;15.80;;;14.80;79.80;;;;;;5090791;28;20462;-72
2022/03/23 08:06:54;;;;;;;20.10;15.57;;;15.10;78.90;;;;;;5089990;28;20464;-72
2022/03/23 08:09:21;;;;;;;18.37;14.50;;;15.70;78.00;;;;;;5090835;28;20457;-72
2022/03/23 08:11:48;;;;;;;19.90;15.93;;;16.20;76.70;;;;;;5090652;28;20454;-71
2022/03/23 08:14:14;;;;;;;23.13;16.00;;;16.70;75.00;;;;;;5090351;28;20462;-71
2022/03/23 08:16:41;;;;;;;20.70;15.10;;;17.10;75.30;;;;;;5092700;28;20504;-72
2022/03/23 08:19:08;;;;;;;20.50;16.30;;;17.60;73.10;;;;;;5089971;28;20486;-72
2022/03/23 08:21:36;;;;;;;21.83;14.87;;;17.90;71.40;;;;;;5091521;28;20460;-72
2022/03/23 08:24:03;;;;;;;19.13;15.77;;;18.30;68.50;;;;;;5091215;28;20461;-72
2022/03/23 08:26:30;;;;;;;19.93;16.40;;;18.60;69.90;;;;;;5091465;28;20477;-72
2022/03/23 08:28:57;;;;;;;20.90;15.20;;;19.00;67.90;;;;;;5089378;28;20519;-72
2022/03/23 08:31:24;;;;;;;18.00;15.33;;;19.50;68.20;;;;;;5091244;28;20956;-72
2022/03/23 08:33:50;;;;;;;17.70;15.40;;;19.90;67.20;;;;;;5091423;28;20465;-72
2022/03/23 08:36:17;;;;;;;17.37;14.70;;;20.10;67.30;;;;;;5091272;28;20482;-71
2022/03/23 08:38:45;;;;;;;19.73;15.87;;;20.30;67.50;;;;;;5090980;28;20477;-72
2022/03/23 08:41:13;;;;;;;18.53;14.90;;;20.80;66.40;;;;;;5090951;28;20556;-71
2022/03/23 08:43:41;;;;;;;18.87;16.37;;;21.30;64.90;;;;;;5092130;28;20859;-71
2022/03/23 08:46:07;;;;;;;17.80;15.50;;;21.90;62.80;;;;;;5090713;28;20856;-71
2022/03/23 08:48:34;;;;;;;21.33;16.03;;;22.20;62.10;;;;;;5090524;28;20979;-70
2022/03/23 08:51:01;;;;;;;16.87;15.17;;;22.50;62.00;;;;;;5091117;28;20520;-71
2022/03/23 08:53:28;;;;;;;22.10;15.00;;;22.80;61.10;;;;;;5092342;28;20955;-71
2022/03/23 08:55:57;;;;;;;18.53;14.50;;;23.00;60.00;;;;;;5094902;28;20488;-71
2022/03/23 08:58:24;;;;;;;16.47;14.40;;;23.40;56.90;;;;;;5095737;28;20517;-71
2022/03/23 09:00:51;;;;;;;14.37;12.90;;;23.70;56.20;;;;;;5094234;28;20833;-71
2022/03/23 09:03:17;;;;;;;17.70;14.30;;;23.60;56.40;;;;;;5094344;28;20468;-70
2022/03/23 09:05:44;;;;;;;15.00;13.40;;;24.00;55.90;;;;;;5094307;28;20579;-71
2022/03/23 09:08:11;;;;;;;12.60;11.30;;;24.30;54.90;;;;;;5093042;28;20462;-72
2022/03/23 09:10:38;;;;;;;17.77;13.80;;;24.70;52.70;;;;;;5094310;28;20941;-71
2022/03/23 09:13:06;;;;;;;14.50;13.00;;;25.40;53.00;;;;;;5093872;28;20833;-71
2022/03/23 09:15:33;;;;;;;14.07;12.80;;;25.50;52.00;;;;;;5094347;28;20485;-71
2022/03/23 09:18:01;;;;;;;13.27;12.00;;;25.80;52.90;;;;;;5093047;28;20481;-72
2022/03/23 09:20:29;;;;;;;13.53;12.20;;;25.50;50.20;;;;;;5093673;28;20464;-72
2022/03/23 09:22:55;;;;;;;14.70;13.17;;;25.70;50.80;;;;;;5093786;28;20462;-72
2022/03/23 09:25:23;;;;;;;14.37;12.90;;;26.00;49.80;;;;;;5093653;28;20481;-72
2022/03/23 09:27:51;;;;;;;13.53;12.23;;;26.10;50.40;;;;;;5093136;28;20489;-72
2022/03/23 09:30:20;;;;;;;14.30;13.00;;;26.60;49.40;;;;;;5093561;28;20458;-71
2022/03/23 09:32:48;;;;;;;13.77;12.47;;;26.50;49.50;;;;;;5093571;28;20469;-72
2022/03/23 09:35:16;;;;;;;16.70;13.97;;;26.40;50.80;;;;;;5093617;28;20923;-72
2022/03/23 09:37:48;;;;;;;13.37;12.17;;;26.80;50.10;;;;;;5092671;28;20457;-72
2022/03/23 09:40:18;;;;;;;13.33;11.90;;;27.10;48.80;;;;;;5093646;28;20999;-71
2022/03/23 09:42:45;;;;;;;14.83;12.97;;;27.60;48.10;;;;;;5093688;28;20492;-71
2022/03/23 09:45:14;;;;;;;14.07;12.73;;;27.80;46.90;;;;;;5093297;28;20994;-71
2022/03/23 09:47:43;;;;;;;13.83;12.60;;;27.40;49.80;;;;;;5092990;28;20450;-71
2022/03/23 09:50:11;;;;;;;13.87;12.57;;;27.70;48.50;;;;;;5093166;28;20468;-71
2022/03/23 09:52:39;;;;;;;12.40;11.30;;;27.50;48.30;;;;;;5093364;28;20465;-71
2022/03/23 09:55:06;;;;;;;13.00;11.70;;;28.20;48.30;;;;;;5092625;28;20480;-71
2022/03/23 09:57:33;;;;;;;12.40;11.20;;;27.50;46.80;;;;;;5092718;28;20462;-71
2022/03/23 10:00:00;;;;;;;14.43;12.93;;;27.90;47.20;;;;;;5092622;28;20488;-71
2022/03/23 10:03:22;;;;;;;14.13;12.90;;;27.80;45.60;;;;;;5093083;28;20462;-71
2022/03/23 10:06:04;;;;;;;11.77;10.77;;;27.80;46.50;;;;;;5091469;28;20490;-71
2022/03/23 10:09:15;;;;;;;12.77;11.20;;;28.20;46.00;;;;;;5092930;28;20454;-71
2022/03/23 10:12:19;;;;;;;11.90;10.77;;;28.40;45.40;;;;;;5072035;28;20655;-71
2022/03/23 10:15:37;;;;;;;10.97;9.80;;;29.10;44.10;;;;;;5093017;28;20560;-71
2022/03/23 10:18:49;;;;;;;12.10;11.00;;;29.70;42.30;;;;;;5092073;28;20493;-71
2022/03/23 10:21:16;;;;;;;11.43;10.37;;;29.10;43.20;;;;;;5092643;28;20520;-71
2022/03/23 10:24:06;;;;;;;10.87;9.93;;;28.80;44.00;;;;;;5092877;28;20465;-71
2022/03/23 10:26:37;;;;;;;10.27;9.47;;;28.80;43.30;;;;;;5071805;28;20485;-70
2022/03/23 10:29:07;;;;;;;10.57;9.63;;;29.20;45.10;;;;;;5092102;28;21042;-71
2022/03/23 10:31:33;;;;;;;11.00;10.00;;;29.10;45.00;;;;;;5092827;28;20454;-71
2022/03/23 10:34:07;;;;;;;10.97;10.07;;;29.30;44.70;;;;;;5092150;28;20471;-71
2022/03/23 10:36:35;;;;;;;11.87;10.77;;;29.30;43.30;;;;;;5092340;28;20491;-71
2022/03/23 10:39:11;;;;;;;10.70;9.70;;;29.80;42.80;;;;;;5092027;28;20494;-71
2022/03/23 10:41:38;;;;;;;12.53;11.13;;;30.40;44.10;;;;;;5092771;28;20487;-71
2022/03/23 10:44:16;;;;;;;9.80;9.00;;;31.10;41.80;;;;;;5092020;28;20458;-71
2022/03/23 10:46:43;;;;;;;9.20;8.50;;;30.70;42.30;;;;;;5091597;28;20485;-71
2022/03/23 10:49:14;;;;;;;10.40;9.40;;;31.30;41.60;;;;;;5091996;28;20561;-71
2022/03/23 10:51:43;;;;;;;10.50;8.43;;;31.30;40.30;;;;;;5092216;28;20892;-71
2022/03/23 10:54:15;;;;;;;9.50;8.80;;;30.40;40.50;;;;;;5091939;28;20470;-71
2022/03/23 10:56:42;;;;;;;9.30;8.40;;;30.40;41.70;;;;;;5091158;28;20474;-71
2022/03/23 10:59:22;;;;;;;8.23;7.47;;;30.20;39.80;;;;;;5091562;28;20492;-70
2022/03/23 11:02:00;;;;;;;8.33;7.67;;;30.50;40.60;;;;;;5091487;28;20469;-70
2022/03/23 11:04:30;;;;;;;9.03;8.13;;;30.90;40.10;;;;;;5091925;28;20498;-71
2022/03/23 11:06:57;;;;;;;9.57;8.67;;;31.10;39.20;;;;;;5091028;28;20472;-71
2022/03/23 11:18:07;;;;;;;9.63;8.63;;;31.20;39.60;;;;;;5090672;28;20460;-72
2022/03/23 11:20:47;;;;;;;12.93;9.40;;;31.90;39.10;;;;;;5092127;28;20482;-72
2022/03/23 11:23:18;;;;;;;10.43;9.50;;;31.30;40.00;;;;;;5091356;28;20486;-72
2022/03/23 11:25:45;;;;;;;10.73;9.73;;;31.80;38.90;;;;;;5091410;28;20535;-72
2022/03/23 11:28:13;;;;;;;9.47;8.50;;;31.70;39.00;;;;;;5090487;28;20468;-72
2022/03/23 11:30:40;;;;;;;9.20;8.47;;;31.50;38.40;;;;;;5091368;28;20982;-71
2022/03/23 11:33:08;;;;;;;9.73;8.90;;;31.00;38.70;;;;;;5091864;28;20761;-71
2022/03/23 11:35:37;;;;;;;10.63;9.20;;;31.80;40.30;;;;;;5091028;28;20476;-72
2022/03/23 11:38:12;;;;;;;8.53;7.83;;;31.80;38.50;;;;;;5090906;28;20464;-71
2022/03/23 11:40:40;;;;;;;9.27;8.37;;;31.10;38.10;;;;;;5091122;28;20539;-72
2022/03/23 11:43:07;;;;;;;7.43;6.83;;;31.10;38.00;;;;;;5090865;28;20474;-72
2022/03/23 11:45:34;;;;;;;8.17;7.00;;;31.80;37.00;;;;;;5090435;28;20493;-71
2022/03/23 11:48:11;;;;;;;7.13;6.53;;;31.40;35.40;;;;;;5090191;28;20472;-71
2022/03/23 11:50:48;;;;;;;6.57;5.87;;;31.70;35.50;;;;;;5090998;28;20466;-72
2022/03/23 11:53:27;;;;;;;7.80;7.10;;;32.20;35.80;;;;;;5090655;28;20826;-72
2022/03/23 11:55:57;;;;;;;9.63;6.83;;;32.40;35.20;;;;;;5090665;28;20542;-71
2022/03/23 11:58:34;;;;;;;6.50;5.90;;;32.00;35.50;;;;;;5090348;28;20461;-71
2022/03/23 12:01:08;;;;;;;10.73;5.90;;;31.70;35.00;;;;;;5090694;28;20469;-72
2022/03/23 12:03:49;;;;;;;7.00;6.30;;;31.90;33.80;;;;;;5090591;28;20481;-72
2022/03/23 12:06:17;;;;;;;7.80;7.10;;;31.10;35.90;;;;;;5090845;28;20485;-72
2022/03/23 12:08:47;;;;;;;8.83;8.03;;;30.70;35.40;;;;;;5090202;28;20494;-72
2022/03/23 12:11:38;;;;;;;8.50;7.70;;;30.90;37.40;;;;;;5090715;28;20551;-72
2022/03/23 12:14:07;;;;;;;8.73;6.93;;;31.20;36.00;;;;;;5090423;28;21029;-72
2022/03/23 12:17:23;;;;;;;6.77;6.03;;;31.20;34.20;;;;;;5090539;28;20555;-71
2022/03/23 12:20:03;;;;;;;7.33;6.57;;;31.50;35.80;;;;;;5090146;28;20487;-71
2022/03/23 12:23:10;;;;;;;7.67;6.97;;;31.40;36.20;;;;;;5090770;28;20519;-71
2022/03/23 12:25:47;;;;;;;7.60;6.80;;;31.50;35.60;;;;;;5090102;28;20574;-70
2022/03/23 12:28:38;;;;;;;7.87;7.00;;;32.10;34.50;;;;;;5088798;28;20460;-71
2022/03/23 12:31:09;;;;;;;8.70;7.90;;;32.20;34.90;;;;;;5089962;28;20525;-71
2022/03/23 12:34:00;;;;;;;7.87;6.97;;;32.00;34.00;;;;;;5090474;28;21028;-72
2022/03/23 12:36:56;;;;;;;7.90;7.10;;;32.10;35.50;;;;;;5090425;28;20795;-71
2022/03/23 12:39:28;;;;;;;7.90;7.20;;;32.50;35.40;;;;;;5090013;28;20559;-72
2022/03/23 12:41:57;;;;;;;9.73;7.87;;;31.90;35.80;;;;;;5089933;28;20460;-72
2022/03/23 12:44:33;;;;;;;7.73;6.97;;;31.90;34.90;;;;;;5090247;28;20865;-72
2022/03/23 12:47:06;;;;;;;8.27;7.57;;;32.30;33.80;;;;;;5089474;28;20464;-72
2022/03/23 12:58:09;;;;;;;7.50;6.80;;;31.90;33.70;;;;;;5089547;28;20446;-71
2022/03/23 13:00:40;;;;;;;8.00;7.20;;;31.80;33.50;;;;;;5090064;28;20490;-71
2022/03/23 13:03:48;;;;;;;7.60;6.90;;;31.30;34.70;;;;;;5090174;28;20461;-71
2022/03/23 13:06:16;;;;;;;7.97;7.27;;;31.00;33.60;;;;;;5090096;28;20476;-72
2022/03/23 13:08:47;;;;;;;7.90;7.20;;;30.90;33.80;;;;;;5089660;28;20490;-72
2022/03/23 13:11:16;;;;;;;7.67;6.97;;;30.80;34.30;;;;;;5089626;28;20531;-71
2022/03/23 13:13:50;;;;;;;7.77;7.07;;;31.10;34.10;;;;;;5090208;28;20898;-71
2022/03/23 13:16:20;;;;;;;9.40;7.70;;;30.70;33.70;;;;;;5089714;28;20893;-71
2022/03/23 13:18:46;;;;;;;11.00;8.43;;;30.90;34.90;;;;;;5089622;28;20479;-71